Norwegian Sky — C6PZ8 — position and weather

sailwx.info

Track history (hours):
 
Tides and Currents Weather Stations Pressure Air Temp Water Temp Dewpoint Dewpoint Depression Visibility Wind Speed Wind Dir Waves Ship Positions

Norwegian Sky (Norway)

Operator: Norwegian Cruise Line

Last reported at 2018-Feb-25 00:48 UTC. Time now 2018-Feb-26 02:13 UTC.
Position N 25°32' W 077°27'.

Length 259 m; draft 8.2 m.

Type: Ship. MMSI: 308865000.

Date/timePositionNaut miles runAvg speedWind from/ knotsBaromVisibWave heightAir tempDewpointWater temp
2018-Feb-25 00:48N 25°32' W 077°27'2 7.8
2018-Feb-25 00:30N 25°30' W 077°27'4 8.1
2018-Feb-25 00:00N 25°26' W 077°26'611.9
2018-Feb-24 23:30N 25°20' W 077°25'713.5
2018-Feb-24 23:01N 25°13' W 077°23'5 9.5
2018-Feb-24 22:31N 25°08' W 077°22'4 7.7
2018-Feb-24 22:00N 25°05' W 077°21'0 0.0
2018-Feb-24 21:29N 25°05' W 077°21'0 0.0
2018-Feb-24 20:56N 25°05' W 077°21'127 6.5
2018-Feb-24 01:19N 26°03' W 079°26'517.0
2018-Feb-24 01:00N 25°58' W 079°29'816.0
2018-Feb-24 00:30N 25°53' W 079°35'816.1
2018-Feb-24 00:00N 25°47' W 079°42'815.0
2018-Feb-23 23:30N 25°46' W 079°50'714.9
2018-Feb-23 23:00N 25°46' W 079°58'612.3
2018-Feb-23 22:30N 25°46' W 080°05'4 8.7
2018-Feb-23 22:00N 25°47' W 080°10'0 0.1
2018-Feb-23 21:30N 25°46' W 080°10'0 0.0
2018-Feb-23 21:00N 25°46' W 080°10'0 0.0
2018-Feb-23 20:30N 25°46' W 080°10'0 0.0
2018-Feb-23 19:56N 25°46' W 080°10'0 0.0
2018-Feb-23 19:29N 25°46' W 080°10'0 0.0
2018-Feb-23 18:59N 25°46' W 080°10'0 0.0
2018-Feb-23 18:29N 25°46' W 080°10'0 0.0
2018-Feb-23 17:58N 25°46' W 080°10'0 0.0
2018-Feb-23 17:28N 25°46' W 080°10'0 0.0
2018-Feb-23 16:58N 25°46' W 080°10'0 0.0
2018-Feb-23 16:28N 25°46' W 080°10'0 0.0
2018-Feb-23 15:58N 25°46' W 080°10'0 0.0
2018-Feb-23 15:30N 25°46' W 080°10'0 0.0
2018-Feb-23 15:00N 25°46' W 080°10'0 0.0
2018-Feb-23 14:30N 25°46' W 080°10'0 0.0
2018-Feb-23 14:00N 25°46' W 080°10'0 0.0
2018-Feb-23 13:30N 25°46' W 080°10'0 0.0
2018-Feb-23 12:59N 25°46' W 080°10'0 0.0
2018-Feb-23 12:29N 25°46' W 080°10'0 0.0
2018-Feb-23 11:59N 25°46' W 080°10'0 0.0
2018-Feb-23 11:31N 25°46' W 080°10'1 2.2
2018-Feb-23 11:00N 25°47' W 080°11'3 5.2
2018-Feb-23 10:30N 25°46' W 080°08'5 9.1
2018-Feb-23 10:00N 25°47' W 080°03'4 8.4
2018-Feb-23 09:31N 25°48' W 079°59'5 9.1
2018-Feb-23 09:00N 25°47' W 079°54'4 8.6
2018-Feb-23 08:31N 25°47' W 079°49'5 9.0
2018-Feb-23 08:01N 25°47' W 079°44'4 8.7
2018-Feb-23 07:31N 25°49' W 079°40'4 8.4
2018-Feb-23 07:00N 25°52' W 079°36'4 8.3
2018-Feb-23 06:31N 25°55' W 079°33'4 8.6
2018-Feb-23 05:59N 25°58' W 079°29'4 8.6
2018-Feb-23 05:30N 26°01' W 079°26'5 8.5
2018-Feb-23 04:57N 26°04' W 079°22'4 8.6
2018-Feb-23 04:30N 26°07' W 079°19'4 8.6
2018-Feb-23 03:59N 26°09' W 079°15'  
2018-Feb-20 04:48N 26°07' W 079°24'2 6.2
2018-Feb-20 04:30N 26°05' W 079°25'3 6.2
2018-Feb-20 04:00N 26°03' W 079°27'3 6.1
2018-Feb-20 03:30N 26°01' W 079°29'3 6.2
2018-Feb-20 02:59N 25°58' W 079°31'3 6.4
2018-Feb-20 02:30N 25°55' W 079°33'3 6.4
2018-Feb-20 02:00N 25°53' W 079°35'3 6.3
2018-Feb-20 01:31N 25°51' W 079°38'3 6.3
2018-Feb-20 01:00N 25°49' W 079°41'4 9.0
2018-Feb-20 00:30N 25°46' W 079°45'5 9.7
2018-Feb-20 00:00N 25°46' W 079°50'5 9.8
2018-Feb-19 23:30N 25°45' W 079°55'510.1
2018-Feb-19 23:00N 25°45' W 080°01'5 9.5
2018-Feb-19 22:30N 25°46' W 080°06'4 6.7
2018-Feb-19 21:58N 25°46' W 080°10'0 0.0
2018-Feb-19 21:28N 25°46' W 080°10'0 0.0
2018-Feb-19 20:58N 25°46' W 080°10'0 0.0
2018-Feb-19 20:28N 25°46' W 080°10'0 0.0
2018-Feb-19 19:54N 25°46' W 080°10'0 0.0
2018-Feb-19 19:30N 25°46' W 080°10'0 0.0
2018-Feb-19 19:00N 25°46' W 080°10'0 0.0
2018-Feb-19 18:30N 25°46' W 080°10'0 0.0
2018-Feb-19 18:00N 25°46' W 080°10'0 0.0
2018-Feb-19 17:29N 25°46' W 080°10'0 0.0
2018-Feb-19 16:59N 25°46' W 080°10'0 0.0
2018-Feb-19 16:29N 25°46' W 080°10'0 0.0
2018-Feb-19 15:59N 25°46' W 080°10'0 0.0
2018-Feb-19 15:28N 25°46' W 080°10'0 0.0
2018-Feb-19 14:59N 25°46' W 080°10'0 0.0
2018-Feb-19 14:29N 25°46' W 080°10'0 0.0
2018-Feb-19 13:58N 25°46' W 080°10'0 0.0
2018-Feb-19 13:28N 25°46' W 080°10'0 0.0
2018-Feb-19 12:58N 25°46' W 080°10'0 0.0
2018-Feb-19 12:28N 25°46' W 080°10'0 0.0
2018-Feb-19 12:00N 25°46' W 080°10'0 0.0
2018-Feb-19 11:30N 25°46' W 080°10'1 2.1
2018-Feb-19 11:01N 25°47' W 080°11'2 4.6
2018-Feb-19 10:30N 25°46' W 080°09'611.6
2018-Feb-19 10:00N 25°47' W 080°02'611.0
2018-Feb-19 09:30N 25°47' W 079°56'815.0
2018-Feb-19 09:00N 25°47' W 079°48'714.0
2018-Feb-19 08:30N 25°49' W 079°40'714.4
2018-Feb-19 08:00N 25°54' W 079°34'714.9
2018-Feb-19 07:30N 25°59' W 079°28'815.5
2018-Feb-19 07:00N 26°04' W 079°22'815.7
2018-Feb-19 06:30N 26°09' W 079°15'12 0.2
2018-Feb-17 02:54N 26°01' W 079°26'512.1
2018-Feb-17 02:30N 25°58' W 079°30'612.1
2018-Feb-17 02:00N 25°53' W 079°35'611.6
2018-Feb-17 01:30N 25°50' W 079°39'510.7
2018-Feb-17 01:00N 25°47' W 079°44'510.6
2018-Feb-17 00:31N 25°47' W 079°50'510.5
2018-Feb-17 00:01N 25°47' W 079°56'510.5
2018-Feb-16 23:30N 25°47' W 080°02'510.4
2018-Feb-16 23:00N 25°45' W 080°07'4 7.9
2018-Feb-16 22:31N 25°47' W 080°11'1 1.8
2018-Feb-16 22:00N 25°47' W 080°10'0 0.0
2018-Feb-16 21:30N 25°47' W 080°10'0 0.0
2018-Feb-16 21:00N 25°47' W 080°10'0 0.0
2018-Feb-16 20:30N 25°47' W 080°10'0 0.0
2018-Feb-16 19:59N 25°47' W 080°10'0 0.0
2018-Feb-16 19:29N 25°47' W 080°10'0 0.0
2018-Feb-16 18:59N 25°47' W 080°10'0 0.0
2018-Feb-16 18:26N 25°47' W 080°10'0 0.0
2018-Feb-16 17:58N 25°47' W 080°10'0 0.0
2018-Feb-16 17:28N 25°47' W 080°10'0 0.0
2018-Feb-16 16:58N 25°47' W 080°10'0 0.0
2018-Feb-16 16:22N 25°47' W 080°10'0 0.0
2018-Feb-16 15:58N 25°47' W 080°10'0 0.0
2018-Feb-16 15:30N 25°47' W 080°10'0 0.0
2018-Feb-16 15:00N 25°47' W 080°10'0 0.0
2018-Feb-16 14:30N 25°47' W 080°10'0 0.0
2018-Feb-16 13:57N 25°47' W 080°10'0 0.0
2018-Feb-16 13:29N 25°47' W 080°10'0 0.0
2018-Feb-16 12:59N 25°47' W 080°10'0 0.0
2018-Feb-16 12:29N 25°47' W 080°10'0 0.0
2018-Feb-16 11:59N 25°47' W 080°10'0 0.0
2018-Feb-16 11:29N 25°47' W 080°10'0 0.0
2018-Feb-16 10:58N 25°47' W 080°10'0 0.0
2018-Feb-16 10:28N 25°47' W 080°10'1 1.3
2018-Feb-16 10:00N 25°46' W 080°09'611.3
2018-Feb-16 09:30N 25°46' W 080°03'713.5
2018-Feb-16 09:00N 25°47' W 079°56'714.6
2018-Feb-16 08:30N 25°47' W 079°48'713.5
2018-Feb-16 08:00N 25°49' W 079°40'713.8
2018-Feb-16 07:30N 25°54' W 079°35'714.8
2018-Feb-16 07:00N 25°59' W 079°29'815.0
2018-Feb-16 06:30N 26°05' W 079°24'815.8
2018-Feb-16 06:00N 26°09' W 079°16'  
Track history (hours):
 
Tides and Currents Weather Stations Pressure Air Temp Water Temp Dewpoint Dewpoint Depression Visibility Wind Speed Wind Dir Waves Ship Positions

Norwegian Sky (Norway)

Operator: Norwegian Cruise Line

Last reported at 2018-Feb-25 00:48 UTC. Time now 2018-Feb-26 02:13 UTC.
Position N 25°32' W 077°27'.

Length 259 m; draft 8.2 m.

Type: Ship. MMSI: 308865000.

Date/timePositionNaut miles runAvg speedWind from/ knotsBaromVisibWave heightAir tempDewpointWater temp
2018-Feb-25 00:48N 25°32' W 077°27'2 7.8
2018-Feb-25 00:30N 25°30' W 077°27'4 8.1
2018-Feb-25 00:00N 25°26' W 077°26'611.9
2018-Feb-24 23:30N 25°20' W 077°25'713.5
2018-Feb-24 23:01N 25°13' W 077°23'5 9.5
2018-Feb-24 22:31N 25°08' W 077°22'4 7.7
2018-Feb-24 22:00N 25°05' W 077°21'0 0.0
2018-Feb-24 21:29N 25°05' W 077°21'0 0.0
2018-Feb-24 20:56N 25°05' W 077°21'127 6.5
2018-Feb-24 01:19N 26°03' W 079°26'517.0
2018-Feb-24 01:00N 25°58' W 079°29'816.0
2018-Feb-24 00:30N 25°53' W 079°35'816.1
2018-Feb-24 00:00N 25°47' W 079°42'815.0
2018-Feb-23 23:30N 25°46' W 079°50'714.9
2018-Feb-23 23:00N 25°46' W 079°58'612.3
2018-Feb-23 22:30N 25°46' W 080°05'4 8.7
2018-Feb-23 22:00N 25°47' W 080°10'0 0.1
2018-Feb-23 21:30N 25°46' W 080°10'0 0.0
2018-Feb-23 21:00N 25°46' W 080°10'0 0.0
2018-Feb-23 20:30N 25°46' W 080°10'0 0.0
2018-Feb-23 19:56N 25°46' W 080°10'0 0.0
2018-Feb-23 19:29N 25°46' W 080°10'0 0.0
2018-Feb-23 18:59N 25°46' W 080°10'0 0.0
2018-Feb-23 18:29N 25°46' W 080°10'0 0.0
2018-Feb-23 17:58N 25°46' W 080°10'0 0.0
2018-Feb-23 17:28N 25°46' W 080°10'0 0.0
2018-Feb-23 16:58N 25°46' W 080°10'0 0.0
2018-Feb-23 16:28N 25°46' W 080°10'0 0.0
2018-Feb-23 15:58N 25°46' W 080°10'0 0.0
2018-Feb-23 15:30N 25°46' W 080°10'0 0.0
2018-Feb-23 15:00N 25°46' W 080°10'0 0.0
2018-Feb-23 14:30N 25°46' W 080°10'0 0.0
2018-Feb-23 14:00N 25°46' W 080°10'0 0.0
2018-Feb-23 13:30N 25°46' W 080°10'0 0.0
2018-Feb-23 12:59N 25°46' W 080°10'0 0.0
2018-Feb-23 12:29N 25°46' W 080°10'0 0.0
2018-Feb-23 11:59N 25°46' W 080°10'0 0.0
2018-Feb-23 11:31N 25°46' W 080°10'1 2.2
2018-Feb-23 11:00N 25°47' W 080°11'3 5.2
2018-Feb-23 10:30N 25°46' W 080°08'5 9.1
2018-Feb-23 10:00N 25°47' W 080°03'4 8.4
2018-Feb-23 09:31N 25°48' W 079°59'5 9.1
2018-Feb-23 09:00N 25°47' W 079°54'4 8.6
2018-Feb-23 08:31N 25°47' W 079°49'5 9.0
2018-Feb-23 08:01N 25°47' W 079°44'4 8.7
2018-Feb-23 07:31N 25°49' W 079°40'4 8.4
2018-Feb-23 07:00N 25°52' W 079°36'4 8.3
2018-Feb-23 06:31N 25°55' W 079°33'4 8.6
2018-Feb-23 05:59N 25°58' W 079°29'4 8.6
2018-Feb-23 05:30N 26°01' W 079°26'5 8.5
2018-Feb-23 04:57N 26°04' W 079°22'4 8.6
2018-Feb-23 04:30N 26°07' W 079°19'4 8.6
2018-Feb-23 03:59N 26°09' W 079°15'  
2018-Feb-20 04:48N 26°07' W 079°24'2 6.2
2018-Feb-20 04:30N 26°05' W 079°25'3 6.2
2018-Feb-20 04:00N 26°03' W 079°27'3 6.1
2018-Feb-20 03:30N 26°01' W 079°29'3 6.2
2018-Feb-20 02:59N 25°58' W 079°31'3 6.4
2018-Feb-20 02:30N 25°55' W 079°33'3 6.4
2018-Feb-20 02:00N 25°53' W 079°35'3 6.3
2018-Feb-20 01:31N 25°51' W 079°38'3 6.3
2018-Feb-20 01:00N 25°49' W 079°41'4 9.0
2018-Feb-20 00:30N 25°46' W 079°45'5 9.7
2018-Feb-20 00:00N 25°46' W 079°50'5 9.8
2018-Feb-19 23:30N 25°45' W 079°55'510.1
2018-Feb-19 23:00N 25°45' W 080°01'5 9.5
2018-Feb-19 22:30N 25°46' W 080°06'4 6.7
2018-Feb-19 21:58N 25°46' W 080°10'0 0.0
2018-Feb-19 21:28N 25°46' W 080°10'0 0.0
2018-Feb-19 20:58N 25°46' W 080°10'0 0.0
2018-Feb-19 20:28N 25°46' W 080°10'0 0.0
2018-Feb-19 19:54N 25°46' W 080°10'0 0.0
2018-Feb-19 19:30N 25°46' W 080°10'0 0.0
2018-Feb-19 19:00N 25°46' W 080°10'0 0.0
2018-Feb-19 18:30N 25°46' W 080°10'0 0.0
2018-Feb-19 18:00N 25°46' W 080°10'0 0.0
2018-Feb-19 17:29N 25°46' W 080°10'0 0.0
2018-Feb-19 16:59N 25°46' W 080°10'0 0.0
2018-Feb-19 16:29N 25°46' W 080°10'0 0.0
2018-Feb-19 15:59N 25°46' W 080°10'0 0.0
2018-Feb-19 15:28N 25°46' W 080°10'0 0.0
2018-Feb-19 14:59N 25°46' W 080°10'0 0.0
2018-Feb-19 14:29N 25°46' W 080°10'0 0.0
2018-Feb-19 13:58N 25°46' W 080°10'0 0.0
2018-Feb-19 13:28N 25°46' W 080°10'0 0.0
2018-Feb-19 12:58N 25°46' W 080°10'0 0.0
2018-Feb-19 12:28N 25°46' W 080°10'0 0.0
2018-Feb-19 12:00N 25°46' W 080°10'0 0.0
2018-Feb-19 11:30N 25°46' W 080°10'1 2.1
2018-Feb-19 11:01N 25°47' W 080°11'2 4.6
2018-Feb-19 10:30N 25°46' W 080°09'611.6
2018-Feb-19 10:00N 25°47' W 080°02'611.0
2018-Feb-19 09:30N 25°47' W 079°56'815.0
2018-Feb-19 09:00N 25°47' W 079°48'714.0
2018-Feb-19 08:30N 25°49' W 079°40'714.4
2018-Feb-19 08:00N 25°54' W 079°34'714.9
2018-Feb-19 07:30N 25°59' W 079°28'815.5
2018-Feb-19 07:00N 26°04' W 079°22'815.7
2018-Feb-19 06:30N 26°09' W 079°15'12 0.2
2018-Feb-17 02:54N 26°01' W 079°26'512.1
2018-Feb-17 02:30N 25°58' W 079°30'612.1
2018-Feb-17 02:00N 25°53' W 079°35'611.6
2018-Feb-17 01:30N 25°50' W 079°39'510.7
2018-Feb-17 01:00N 25°47' W 079°44'510.6
2018-Feb-17 00:31N 25°47' W 079°50'510.5
2018-Feb-17 00:01N 25°47' W 079°56'510.5
2018-Feb-16 23:30N 25°47' W 080°02'510.4
2018-Feb-16 23:00N 25°45' W 080°07'4 7.9
2018-Feb-16 22:31N 25°47' W 080°11'1 1.8
2018-Feb-16 22:00N 25°47' W 080°10'0 0.0
2018-Feb-16 21:30N 25°47' W 080°10'0 0.0
2018-Feb-16 21:00N 25°47' W 080°10'0 0.0
2018-Feb-16 20:30N 25°47' W 080°10'0 0.0
2018-Feb-16 19:59N 25°47' W 080°10'0 0.0
2018-Feb-16 19:29N 25°47' W 080°10'0 0.0
2018-Feb-16 18:59N 25°47' W 080°10'0 0.0
2018-Feb-16 18:26N 25°47' W 080°10'0 0.0
2018-Feb-16 17:58N 25°47' W 080°10'0 0.0
2018-Feb-16 17:28N 25°47' W 080°10'0 0.0
2018-Feb-16 16:58N 25°47' W 080°10'0 0.0
2018-Feb-16 16:22N 25°47' W 080°10'0 0.0
2018-Feb-16 15:58N 25°47' W 080°10'0 0.0
2018-Feb-16 15:30N 25°47' W 080°10'0 0.0
2018-Feb-16 15:00N 25°47' W 080°10'0 0.0
2018-Feb-16 14:30N 25°47' W 080°10'0 0.0
2018-Feb-16 13:57N 25°47' W 080°10'0 0.0
2018-Feb-16 13:29N 25°47' W 080°10'0 0.0
2018-Feb-16 12:59N 25°47' W 080°10'0 0.0
2018-Feb-16 12:29N 25°47' W 080°10'0 0.0
2018-Feb-16 11:59N 25°47' W 080°10'0 0.0
2018-Feb-16 11:29N 25°47' W 080°10'0 0.0
2018-Feb-16 10:58N 25°47' W 080°10'0 0.0
2018-Feb-16 10:28N 25°47' W 080°10'1 1.3
2018-Feb-16 10:00N 25°46' W 080°09'611.3
2018-Feb-16 09:30N 25°46' W 080°03'713.5
2018-Feb-16 09:00N 25°47' W 079°56'714.6
2018-Feb-16 08:30N 25°47' W 079°48'713.5
2018-Feb-16 08:00N 25°49' W 079°40'713.8
2018-Feb-16 07:30N 25°54' W 079°35'714.8
2018-Feb-16 07:00N 25°59' W 079°29'815.0
2018-Feb-16 06:30N 26°05' W 079°24'815.8
2018-Feb-16 06:00N 26°09' W 079°16'  

Dump ship's entire track history